Terminal Aerodrome Forecast
Issued by NWS

Home | Current Version | Previous Version | Graphics & Text | Print | Product List | Glossary On
Versions: 1 2 3 4 5 6 7 8 9 10 11 12 13 14 15 16 17 18 19
287
FTUS42 KMHX 232227 AAA
TAFPGV
TAF AMD
KPGV 232227Z 2322/2418 06005KT 5SM -SHRA BKN005 OVC012
     FM240000 12008KT 3SM SHRA SCT007 OVC015
     FM240300 21008KT 4SM SHRA OVC008 WS020/17040KT
     FM240600 24005KT P6SM VCSH OVC008 WS020/17040KT
     FM240900 05005KT P6SM OVC008
     FM241500 09005KT P6SM BKN025
      AMD LTD TO CLD VIS AND WIND=

USA.gov is the U.S. government's official web portal to all federal, state and local government web resources and services.